createdAt,value
2023-01-30T00:01:19.204Z,0.15
2023-01-30T00:03:46.901Z,-0.10
2023-01-30T00:06:14.843Z,0.19
2023-01-30T00:08:42.351Z,0.36
2023-01-30T00:11:12.214Z,0.31
2023-01-30T00:13:41.107Z,0.17
2023-01-30T00:16:12.466Z,-0.02
2023-01-30T00:18:41.628Z,-0.04
2023-01-30T00:21:11.637Z,0.17
2023-01-30T00:23:39.353Z,0.28
2023-01-30T00:26:07.715Z,0.49
2023-01-30T00:28:35.596Z,0.73
2023-01-30T00:31:04.593Z,0.90
2023-01-30T00:33:36.482Z,1.00
2023-01-30T00:36:04.628Z,1.13
2023-01-30T00:38:31.994Z,1.10
2023-01-30T00:40:59.299Z,1.16
2023-01-30T00:43:45.714Z,1.27
2023-01-30T00:46:45.184Z,1.30
2023-01-30T00:49:12.750Z,1.36
2023-01-30T00:51:40.235Z,1.21
2023-01-30T00:54:08.217Z,1.20
2023-01-30T00:56:35.581Z,1.14
2023-01-30T00:59:04.219Z,0.76
2023-01-30T01:01:31.469Z,0.37
2023-01-30T01:03:58.773Z,0.29
2023-01-30T01:06:26.186Z,0.55
2023-01-30T01:08:53.606Z,0.63
2023-01-30T01:11:27.078Z,0.58
2023-01-30T01:14:00.433Z,0.57
2023-01-30T01:16:29.472Z,0.77
2023-01-30T01:18:59.451Z,0.76
2023-01-30T01:21:26.811Z,0.81
2023-01-30T01:23:57.052Z,0.33
2023-01-30T01:26:24.997Z,-0.10
2023-01-30T01:28:57.036Z,-0.21
2023-01-30T01:31:25.551Z,0.13
2023-01-30T01:33:52.918Z,0.53
2023-01-30T01:36:49.766Z,0.61
2023-01-30T01:39:09.972Z,0.66
2023-01-30T01:41:37.328Z,0.66
2023-01-30T01:44:12.275Z,0.71
2023-01-30T01:46:48.756Z,0.65
2023-01-30T01:49:27.958Z,0.68
2023-01-30T01:52:00.885Z,0.85
2023-01-30T01:54:39.927Z,0.96
2023-01-30T01:57:15.209Z,0.96
2023-01-30T01:59:59.325Z,0.86
2023-01-30T02:02:27.212Z,0.86
2023-01-30T02:05:02.023Z,0.95
2023-01-30T02:07:36.925Z,0.84
2023-01-30T02:10:06.866Z,0.78
2023-01-30T02:12:34.758Z,0.66
2023-01-30T02:15:04.520Z,0.03
2023-01-30T05:33:47.385Z,-1.04
2023-01-30T05:36:17.056Z,-1.12
2023-01-30T05:38:45.403Z,-1.12
2023-01-30T05:41:14.882Z,-1.18
2023-01-30T05:43:43.192Z,-1.13
2023-01-30T05:46:12.583Z,-1.19
2023-01-30T05:48:40.371Z,-1.21
2023-01-30T05:51:16.716Z,-1.20
2023-01-30T05:53:44.513Z,-1.19
2023-01-30T05:56:12.275Z,-1.24
2023-01-30T05:58:39.560Z,-1.33
2023-01-30T06:01:09.790Z,-1.33
2023-01-30T06:03:37.955Z,-1.34
2023-01-30T06:06:06.307Z,-1.35
2023-01-30T06:08:34.010Z,-1.39
2023-01-30T06:11:08.156Z,-1.10
2023-01-30T06:13:36.353Z,-0.77
2023-01-30T06:16:04.569Z,-0.43
2023-01-30T06:18:31.980Z,-0.26
2023-01-30T06:20:59.336Z,-0.53
2023-01-30T06:23:28.285Z,-0.41
2023-01-30T06:25:56.194Z,-0.17
2023-01-30T06:28:25.683Z,-0.85
2023-01-30T06:30:53.628Z,-0.85
2023-01-30T06:33:21.234Z,-1.06
2023-01-30T06:35:50.882Z,-1.11
2023-01-30T06:38:20.618Z,-1.20
2023-01-30T06:40:50.103Z,-1.04
2023-01-30T06:43:17.929Z,-0.84
2023-01-30T06:45:45.753Z,-0.32
2023-01-30T06:48:13.925Z,-0.27
2023-01-30T06:50:41.202Z,-0.44
2023-01-30T06:53:08.959Z,-0.17
2023-01-30T06:55:36.896Z,-0.61
2023-01-30T06:58:14.819Z,-0.80
2023-01-30T07:00:43.410Z,-1.09
2023-01-30T07:03:16.056Z,-0.71
2023-01-30T07:05:45.003Z,-0.97
2023-01-30T07:08:13.690Z,-0.88
2023-01-30T07:10:42.525Z,-0.94
2023-01-30T07:13:10.040Z,-0.99
2023-01-30T07:15:37.786Z,-0.94
2023-01-30T07:18:05.571Z,-0.86
2023-01-30T07:20:33.289Z,-0.91
2023-01-30T07:23:01.800Z,-0.94
2023-01-30T07:25:30.377Z,-0.85
2023-01-30T07:27:59.907Z,-0.81
2023-01-30T07:30:29.519Z,-0.55
2023-01-30T07:32:58.670Z,-0.50
2023-01-30T07:35:29.348Z,-0.47
2023-01-30T07:37:57.951Z,-0.46
2023-01-30T07:40:26.694Z,-0.36
2023-01-30T07:43:02.812Z,-0.13
2023-01-30T07:45:42.926Z,-0.06
2023-01-30T07:48:16.573Z,-0.05
2023-01-30T07:50:45.114Z,0.19
2023-01-30T07:53:15.276Z,0.54
2023-01-30T07:55:43.143Z,0.67
2023-01-30T07:58:14.678Z,0.39
2023-01-30T08:00:42.741Z,0.34
2023-01-30T08:03:16.094Z,0.51
2023-01-30T08:05:47.028Z,0.84
2023-01-30T08:08:15.898Z,0.63
2023-01-30T08:10:45.461Z,0.55
2023-01-30T08:13:13.049Z,1.19
2023-01-30T08:15:40.444Z,0.71
2023-01-30T08:18:08.464Z,0.47
2023-01-30T08:20:36.674Z,0.61
2023-01-30T08:23:04.369Z,0.58
2023-01-30T08:25:32.245Z,1.01
2023-01-30T08:28:00.420Z,0.86
2023-01-30T08:30:30.441Z,0.52
2023-01-30T08:32:58.450Z,0.48
2023-01-30T08:35:26.568Z,0.48
2023-01-30T08:37:54.090Z,0.56
2023-01-30T08:40:21.557Z,0.50
2023-01-30T08:42:48.933Z,0.41
2023-01-30T08:45:16.301Z,0.64
2023-01-30T08:47:43.637Z,0.68
2023-01-30T08:50:11.903Z,0.70
2023-01-30T08:52:39.416Z,0.68
2023-01-30T08:55:07.118Z,1.03
2023-01-30T08:57:34.779Z,1.16
2023-01-30T09:00:02.600Z,1.22
2023-01-30T09:02:31.172Z,1.60
2023-01-30T09:04:58.509Z,1.71
2023-01-30T09:07:27.681Z,1.76
2023-01-30T09:09:55.488Z,2.09
2023-01-30T09:12:22.849Z,2.23
2023-01-30T09:14:50.267Z,2.08
2023-01-30T09:17:17.889Z,2.16
2023-01-30T09:19:45.186Z,2.30
2023-01-30T09:22:12.524Z,2.28
2023-01-30T09:24:40.202Z,2.28
2023-01-30T09:27:07.610Z,2.43
2023-01-30T09:29:35.001Z,2.56
2023-01-30T09:32:02.568Z,2.32
2023-01-30T09:34:29.878Z,2.33
2023-01-30T09:37:04.362Z,2.72
2023-01-30T09:39:32.018Z,2.56
2023-01-30T09:42:05.686Z,2.41
2023-01-30T09:44:51.620Z,2.12
2023-01-30T09:47:38.704Z,2.13
2023-01-30T09:50:17.697Z,1.93
2023-01-30T09:53:24.029Z,1.93
2023-01-30T09:55:51.801Z,2.12
2023-01-30T09:58:22.717Z,2.18
2023-01-30T10:00:56.962Z,2.28
2023-01-30T10:03:30.130Z,2.31
2023-01-30T10:06:12.915Z,2.26
2023-01-30T10:08:49.877Z,2.61
2023-01-30T10:11:54.177Z,2.14
2023-01-30T10:14:47.520Z,2.18
2023-01-30T10:17:24.493Z,2.28
2023-01-30T10:20:10.669Z,2.25
2023-01-30T10:23:15.921Z,2.27
2023-01-30T10:25:55.156Z,2.50
2023-01-30T10:28:30.645Z,2.67
2023-01-30T10:31:10.053Z,2.87
2023-01-30T10:33:57.853Z,2.72
2023-01-30T10:36:32.723Z,3.04
2023-01-30T10:39:02.730Z,3.20
2023-01-30T10:41:37.678Z,3.08
2023-01-30T10:44:13.485Z,3.20
2023-01-30T10:46:49.493Z,3.19
2023-01-30T10:49:25.812Z,3.25
2023-01-30T10:52:15.148Z,3.12
2023-01-30T10:55:22.148Z,3.25
2023-01-30T10:58:20.029Z,3.10
2023-01-30T11:01:00.830Z,3.34
2023-01-30T11:03:38.246Z,3.44
2023-01-30T11:06:17.308Z,3.58
2023-01-30T11:08:45.271Z,3.49
2023-01-30T11:11:33.718Z,3.51
2023-01-30T11:14:09.988Z,3.31
2023-01-30T11:16:50.732Z,3.58
2023-01-30T11:19:23.676Z,3.88
2023-01-30T11:21:53.589Z,3.74
2023-01-30T11:24:31.352Z,3.90
2023-01-30T11:27:27.778Z,3.65
2023-01-30T11:30:17.732Z,3.69
2023-01-30T11:32:49.295Z,4.12
2023-01-30T11:35:25.821Z,3.91
2023-01-30T11:37:54.357Z,4.35
2023-01-30T11:40:28.050Z,4.01
2023-01-30T11:43:27.211Z,4.37
2023-01-30T11:45:55.774Z,4.70
2023-01-30T11:48:33.765Z,4.35
2023-01-30T11:51:16.824Z,4.55
2023-01-30T11:53:51.436Z,4.70
2023-01-30T11:56:31.187Z,4.81
2023-01-30T11:59:01.804Z,5.13
2023-01-30T12:01:34.524Z,5.19
2023-01-30T12:04:07.396Z,5.34
2023-01-30T12:06:37.717Z,5.11
2023-01-30T12:09:06.535Z,5.20
2023-01-30T12:11:37.048Z,5.67
2023-01-30T12:14:15.260Z,5.55
2023-01-30T12:16:54.810Z,5.94
2023-01-30T12:19:45.352Z,5.71
2023-01-30T12:22:26.557Z,5.89
2023-01-30T12:24:58.522Z,6.01
2023-01-30T12:27:44.816Z,6.21
2023-01-30T12:30:25.215Z,6.00
2023-01-30T12:32:58.524Z,6.52
2023-01-30T12:35:52.392Z,6.30
2023-01-30T12:38:34.963Z,6.23
2023-01-30T12:41:08.342Z,6.16
2023-01-30T12:43:47.557Z,6.20
2023-01-30T12:46:39.892Z,6.07
2023-01-30T12:49:31.676Z,6.30
2023-01-30T12:52:21.377Z,6.65
2023-01-30T12:55:05.253Z,6.51
2023-01-30T12:57:44.297Z,6.84
2023-01-30T13:00:22.284Z,6.59
2023-01-30T13:03:09.855Z,6.54
2023-01-30T13:06:19.367Z,6.36
2023-01-30T13:08:55.456Z,6.45
2023-01-30T13:11:48.141Z,6.55
2023-01-30T13:14:27.529Z,7.16
2023-01-30T13:17:09.710Z,6.81
2023-01-30T13:19:45.254Z,6.72
2023-01-30T13:22:31.853Z,6.87
2023-01-30T13:25:22.413Z,7.01
2023-01-30T13:27:57.671Z,7.09
2023-01-30T13:30:27.741Z,7.17
2023-01-30T13:33:00.010Z,6.69
2023-01-30T13:35:45.624Z,6.80
2023-01-30T13:38:24.716Z,6.89
2023-01-30T13:40:56.705Z,6.86
2023-01-30T13:43:42.418Z,6.91
2023-01-30T13:46:14.316Z,7.08
2023-01-30T13:49:04.038Z,6.88
2023-01-30T13:51:49.441Z,6.91
2023-01-30T13:54:43.030Z,6.93
2023-01-30T13:57:19.754Z,6.91
2023-01-30T14:00:09.953Z,6.89
2023-01-30T14:03:05.810Z,6.99
2023-01-30T14:06:24.982Z,6.92
2023-01-30T14:08:59.458Z,6.95
2023-01-30T14:11:34.854Z,7.35
2023-01-30T14:14:25.594Z,7.28
2023-01-30T14:17:15.060Z,7.53
2023-01-30T14:19:43.877Z,7.47
2023-01-30T14:22:34.671Z,7.63
2023-01-30T14:25:29.991Z,7.52
2023-01-30T14:28:00.401Z,7.51
2023-01-30T14:30:49.440Z,7.87
2023-01-30T14:33:19.417Z,7.48
2023-01-30T14:36:07.408Z,7.42
2023-01-30T14:38:38.629Z,7.19
2023-01-30T14:41:09.391Z,7.06
2023-01-30T14:43:42.779Z,7.14
2023-01-30T14:46:13.275Z,7.09
2023-01-30T14:48:56.886Z,6.95
2023-01-30T14:51:45.001Z,6.88
2023-01-30T14:54:13.293Z,6.96
2023-01-30T14:56:50.186Z,6.88
2023-01-30T14:59:17.448Z,7.00
2023-01-30T15:02:00.034Z,6.94
2023-01-30T15:04:39.973Z,6.90
2023-01-30T15:07:22.385Z,6.95
2023-01-30T15:09:59.042Z,6.99
2023-01-30T15:12:55.885Z,6.90
2023-01-30T15:15:34.742Z,7.18
2023-01-30T15:18:51.875Z,6.98
2023-01-30T15:21:29.319Z,7.60
2023-01-30T15:24:21.925Z,7.03
2023-01-30T15:27:07.551Z,6.97
2023-01-30T15:29:53.775Z,6.76
2023-01-30T15:32:22.510Z,6.90
2023-01-30T15:35:02.420Z,6.90
2023-01-30T15:37:36.474Z,7.29
2023-01-30T15:40:16.845Z,7.35
2023-01-30T15:42:47.394Z,7.19
2023-01-30T15:45:17.708Z,7.18
2023-01-30T15:48:06.573Z,6.87
2023-01-30T15:50:33.986Z,7.19
2023-01-30T15:53:01.892Z,7.36
2023-01-30T15:55:33.809Z,7.22
2023-01-30T15:58:06.237Z,7.29
2023-01-30T16:00:37.834Z,7.41
2023-01-30T16:03:11.015Z,6.98
2023-01-30T16:05:47.412Z,7.01
2023-01-30T16:08:26.991Z,7.15
2023-01-30T16:10:54.886Z,7.12
2023-01-30T16:13:23.850Z,6.81
2023-01-30T16:16:07.423Z,6.68
2023-01-30T16:18:42.957Z,6.81
2023-01-30T16:21:21.401Z,6.72
2023-01-30T16:24:00.602Z,6.56
2023-01-30T16:26:28.989Z,6.46
2023-01-30T16:29:06.424Z,6.38
2023-01-30T16:31:37.809Z,6.33
2023-01-30T16:34:05.836Z,6.22
2023-01-30T16:36:39.862Z,6.27
2023-01-30T16:39:29.682Z,6.21
2023-01-30T16:41:59.653Z,6.13
2023-01-30T16:44:31.904Z,5.87
2023-01-30T16:47:23.482Z,5.86
2023-01-30T16:49:52.816Z,5.97
2023-01-30T16:52:44.381Z,5.77
2023-01-30T16:55:21.107Z,5.60
2023-01-30T16:58:00.076Z,5.63
2023-01-30T17:00:50.424Z,5.48
2023-01-30T17:03:26.696Z,5.50
2023-01-30T17:05:54.350Z,5.53
2023-01-30T17:08:31.420Z,5.52
2023-01-30T17:11:03.803Z,5.42
2023-01-30T17:13:37.455Z,5.37
2023-01-30T17:16:23.219Z,5.27
2023-01-30T17:18:53.144Z,5.24
2023-01-30T17:21:22.873Z,4.98
2023-01-30T17:24:01.271Z,5.07
2023-01-30T17:26:30.221Z,5.07
2023-01-30T17:28:58.182Z,5.06
2023-01-30T17:31:25.731Z,5.12
2023-01-30T17:33:53.199Z,5.31
2023-01-30T17:36:25.136Z,5.13
2023-01-30T17:38:55.073Z,5.27
2023-01-30T17:41:33.394Z,5.26
2023-01-30T17:44:01.261Z,5.25
2023-01-30T17:46:51.840Z,5.24
2023-01-30T17:49:22.219Z,5.20
2023-01-30T17:51:53.924Z,5.19
2023-01-30T17:54:22.568Z,5.10
2023-01-30T17:56:55.958Z,5.23
2023-01-30T17:59:23.286Z,5.06
2023-01-30T18:01:52.478Z,5.17
2023-01-30T18:04:20.610Z,5.06
2023-01-30T18:06:55.912Z,5.07
2023-01-30T18:09:24.389Z,5.21
2023-01-30T18:11:51.686Z,5.21
2023-01-30T18:14:19.069Z,5.09
2023-01-30T18:16:46.535Z,5.06
2023-01-30T18:19:17.958Z,4.95
2023-01-30T18:21:45.656Z,4.88
2023-01-30T18:24:14.588Z,4.86
2023-01-30T18:26:43.024Z,4.88
2023-01-30T18:29:11.086Z,4.76
2023-01-30T18:31:40.068Z,4.60
2023-01-30T18:34:09.828Z,4.66
2023-01-30T18:36:38.214Z,4.85
2023-01-30T18:39:06.074Z,4.52
2023-01-30T18:41:35.275Z,4.41
2023-01-30T18:44:06.484Z,4.35
2023-01-30T18:46:34.438Z,4.40
2023-01-30T18:49:02.302Z,4.52
2023-01-30T18:51:33.977Z,4.50
2023-01-30T18:54:01.936Z,4.45
2023-01-30T18:56:31.763Z,4.23
2023-01-30T18:59:04.477Z,4.21
2023-01-30T19:01:35.437Z,4.08
2023-01-30T19:04:04.443Z,3.78
2023-01-30T19:06:35.717Z,4.16
2023-01-30T19:09:03.770Z,4.18
2023-01-30T19:11:51.278Z,4.05
2023-01-30T19:14:18.947Z,4.01
2023-01-30T19:16:47.567Z,4.26
2023-01-30T19:19:15.058Z,4.37
2023-01-30T19:21:42.789Z,4.48
2023-01-30T19:24:15.511Z,4.52
2023-01-30T19:26:43.004Z,4.44
2023-01-30T19:29:10.383Z,4.39
2023-01-30T19:31:38.137Z,4.55
2023-01-30T19:34:06.318Z,4.52
2023-01-30T19:36:36.543Z,4.50
2023-01-30T19:39:06.033Z,4.56
2023-01-30T19:41:36.217Z,4.55
2023-01-30T19:44:06.747Z,4.49
2023-01-30T19:46:34.899Z,4.56
2023-01-30T19:49:03.448Z,4.54
2023-01-30T19:51:33.490Z,4.48
2023-01-30T19:54:06.608Z,4.43
2023-01-30T19:56:34.945Z,4.41
2023-01-30T19:59:02.749Z,4.46
2023-01-30T20:01:35.331Z,4.28
2023-01-30T20:04:03.710Z,4.51
2023-01-30T20:06:34.400Z,4.41
2023-01-30T20:09:05.300Z,4.10
2023-01-30T20:11:37.569Z,4.32
2023-01-30T20:14:07.111Z,4.21
2023-01-30T20:16:36.084Z,4.35
2023-01-30T20:19:14.549Z,4.43
2023-01-30T20:21:43.161Z,4.42
2023-01-30T20:24:15.580Z,4.38
2023-01-30T20:26:45.816Z,4.42
2023-01-30T20:29:16.768Z,3.94
2023-01-30T20:31:45.359Z,3.78
2023-01-30T20:34:14.563Z,3.44
2023-01-30T20:36:43.013Z,3.48
2023-01-30T20:39:11.480Z,2.78
2023-01-30T20:41:39.024Z,2.45
2023-01-30T20:44:08.436Z,2.72
2023-01-30T20:46:43.386Z,2.88
2023-01-30T20:49:12.502Z,3.05
2023-01-30T20:51:40.314Z,3.05
2023-01-30T20:54:10.589Z,3.01
2023-01-30T20:56:42.858Z,2.53
2023-01-30T20:59:13.644Z,2.53
2023-01-30T21:01:42.296Z,2.27
2023-01-30T21:04:14.619Z,2.45
2023-01-30T21:06:45.736Z,2.27
2023-01-30T21:09:22.571Z,2.21
2023-01-30T21:11:52.504Z,2.40
2023-01-30T21:14:19.880Z,2.37
2023-01-30T21:16:48.603Z,2.89
2023-01-30T21:19:17.629Z,2.84
2023-01-30T21:21:50.580Z,2.93
2023-01-30T21:24:39.274Z,2.94
2023-01-30T21:27:26.494Z,2.97
2023-01-30T21:30:12.914Z,2.79
2023-01-30T21:32:59.001Z,2.94
2023-01-30T21:35:45.009Z,2.63
2023-01-30T21:38:49.634Z,2.58
2023-01-30T21:41:59.906Z,2.63
2023-01-30T21:44:46.180Z,2.77
2023-01-30T21:47:32.602Z,2.57
2023-01-30T21:50:18.531Z,2.74
2023-01-30T21:53:05.059Z,2.46
2023-01-30T21:55:52.507Z,2.40
2023-01-30T21:58:38.720Z,2.57
2023-01-30T22:01:25.302Z,2.85
2023-01-30T22:04:14.757Z,3.01
2023-01-30T22:07:01.273Z,2.93
2023-01-30T22:09:48.823Z,2.74
2023-01-30T22:12:38.689Z,2.94
2023-01-30T22:15:26.345Z,2.70
2023-01-30T22:18:12.469Z,2.31
2023-01-30T22:21:18.503Z,2.48
2023-01-30T22:24:07.409Z,2.62
2023-01-30T22:26:53.262Z,2.53
2023-01-30T22:29:39.701Z,2.55
2023-01-30T22:32:25.569Z,2.53
2023-01-30T22:35:12.077Z,2.30
2023-01-30T22:37:57.785Z,2.48
2023-01-30T22:40:43.563Z,2.18
2023-01-30T22:43:31.410Z,1.71
2023-01-30T22:46:18.369Z,2.22
2023-01-30T22:49:06.585Z,2.21
2023-01-30T22:51:52.409Z,2.31
2023-01-30T22:54:38.238Z,1.68
2023-01-30T22:57:24.702Z,1.98
2023-01-30T23:00:11.414Z,1.47
2023-01-30T23:02:58.281Z,1.91
2023-01-30T23:05:44.433Z,1.94
2023-01-30T23:08:31.653Z,1.73
2023-01-30T23:11:24.066Z,1.89
2023-01-30T23:14:13.187Z,1.95
2023-01-30T23:16:59.703Z,1.87
2023-01-30T23:19:45.785Z,1.61
2023-01-30T23:22:31.905Z,1.81
2023-01-30T23:25:18.413Z,1.67
2023-01-30T23:28:04.416Z,1.67
2023-01-30T23:30:50.180Z,1.63
2023-01-30T23:33:36.453Z,1.72
2023-01-30T23:36:22.990Z,1.65
2023-01-30T23:39:12.091Z,1.67
2023-01-30T23:41:57.928Z,1.68
2023-01-30T23:44:43.860Z,1.51
2023-01-30T23:47:29.624Z,1.59
2023-01-30T23:50:15.804Z,1.68
2023-01-30T23:53:04.290Z,1.78
2023-01-30T23:55:52.063Z,1.80
2023-01-30T23:58:38.983Z,1.74
